Time;durP1;ratioP1;P1;durP2;ratioP2;P2;SDS_P1;SDS_P2;PMS_P1;PMS_P2;Temp;Humidity;BMP_temperature;BMP_pressure;BME280_temperature;BME280_humidity;BME280_pressure;Samples;Min_cycle;Max_cycle;Signal;HPM_P1;HPM_P2
2022/09/22 00:00:01;;;;;;;;;;;;;;;6.40;86.18;99990.53;8304498;28;19932;-77
2022/09/22 00:04:11;;;;;;;;;;;;;;;6.37;86.26;99998.22;8281621;28;19952;-77
2022/09/22 00:08:20;;;;;;;;;;;;;;;6.29;85.63;99995.47;8285951;28;19945;-77
2022/09/22 00:12:22;;;;;;;;;;;;;;;6.25;86.20;100003.09;8294343;28;20246;-77
2022/09/22 00:16:26;;;;;;;;;;;;;;;6.21;86.21;99994.41;8301672;28;20377;-77
2022/09/22 00:20:28;;;;;;;;;;;;;;;6.15;86.01;100002.03;8296169;28;19956;-76
2022/09/22 00:24:36;;;;;;;;;;;;;;;6.10;85.58;100000.16;8300451;28;20290;-76
2022/09/22 00:28:40;;;;;;;;;;;;;;;6.07;85.76;100001.81;8279323;28;20334;-77
2022/09/22 00:32:48;;;;;;;;;;;;;;;6.05;86.25;99992.31;8287297;28;20403;-77
2022/09/22 00:36:51;;;;;;;;;;;;;;;5.96;85.59;99992.13;8282506;28;19926;-76
2022/09/22 00:40:55;;;;;;;;;;;;;;;5.91;85.76;99997.13;8286760;28;20016;-77
2022/09/22 00:44:58;;;;;;;;;;;;;;;5.88;86.11;99991.88;8286040;28;19925;-76
2022/09/22 00:49:05;;;;;;;;;;;;;;;5.87;85.56;99994.44;8307210;28;19956;-77
2022/09/22 00:53:10;;;;;;;;;;;;;;;5.82;85.50;99990.88;8291622;28;19959;-77
2022/09/22 00:57:15;;;;;;;;;;;;;;;5.74;85.98;99998.41;8309014;28;19939;-77
2022/09/22 01:01:24;;;;;;;;;;;;;;;5.68;86.15;99993.97;8284840;28;20006;-76
2022/09/22 01:05:28;;;;;;;;;;;;;;;5.64;86.09;99992.16;8288116;28;19932;-77
2022/09/22 01:09:33;;;;;;;;;;;;;;;5.55;86.44;99988.47;8281352;28;19925;-77
2022/09/22 01:13:50;;;;;;;;;;;;;;;5.55;86.83;99994.50;8293271;28;19959;-77
2022/09/22 01:18:04;;;;;;;;;;;;;;;5.51;86.65;99994.38;8297118;28;20007;-77
2022/09/22 01:22:12;;;;;;;;;;;;;;;5.51;86.35;99994.38;8290217;28;19925;-77
2022/09/22 01:26:28;;;;;;;;;;;;;;;5.47;86.52;99990.88;8292367;28;19925;-77
2022/09/22 01:30:30;;;;;;;;;;;;;;;5.42;85.76;99989.88;8295632;28;19926;-77
2022/09/22 01:34:40;;;;;;;;;;;;;;;5.39;86.29;99982.09;8293872;28;19991;-77
2022/09/22 01:38:55;;;;;;;;;;;;;;;5.36;86.31;99988.00;8304534;28;19976;-77
2022/09/22 01:43:10;;;;;;;;;;;;;;;5.30;86.21;99981.84;8320546;28;20407;-77
2022/09/22 01:47:16;;;;;;;;;;;;;;;5.27;86.69;99974.03;8300885;28;19975;-77
2022/09/22 01:51:23;;;;;;;;;;;;;;;5.23;86.37;99979.94;8316282;28;19955;-76
2022/09/22 01:55:30;;;;;;;;;;;;;;;5.19;86.21;99978.09;8324628;28;19978;-78
2022/09/22 01:59:34;;;;;;;;;;;;;;;5.14;86.12;99978.84;8286665;28;19987;-76
2022/09/22 02:03:55;;;;;;;;;;;;;;;5.12;86.44;99980.50;8313072;28;19955;-76
2022/09/22 02:08:00;;;;;;;;;;;;;;;5.11;86.34;99981.34;8325166;28;19933;-77
2022/09/22 02:12:09;;;;;;;;;;;;;;;5.06;86.38;99975.22;8329243;28;20467;-77
2022/09/22 02:16:26;;;;;;;;;;;;;;;4.99;86.54;99965.56;8313163;28;19935;-77
2022/09/22 02:20:31;;;;;;;;;;;;;;;4.94;86.44;99964.56;8327755;28;19924;-78
2022/09/22 02:24:43;;;;;;;;;;;;;;;4.87;86.65;99965.25;8331373;28;19936;-77
2022/09/22 02:28:45;;;;;;;;;;;;;;;4.82;86.56;99949.66;8303371;28;19925;-78
2022/09/22 02:32:51;;;;;;;;;;;;;;;4.82;86.48;99959.09;8325846;28;20475;-78
2022/09/22 02:37:13;;;;;;;;;;;;;;;4.75;86.37;99963.19;8278660;28;19926;-77
2022/09/22 02:41:25;;;;;;;;;;;;;;;4.71;86.85;99958.81;8261824;28;19983;-77
2022/09/22 02:45:36;;;;;;;;;;;;;;;4.67;86.52;99959.56;8263218;28;19929;-77
2022/09/22 02:49:41;;;;;;;;;;;;;;;4.64;86.41;99950.84;8268911;28;20354;-78
2022/09/22 02:53:43;;;;;;;;;;;;;;;4.61;86.60;99954.22;8265372;28;19940;-78
2022/09/22 02:57:45;;;;;;;;;;;;;;;4.57;86.59;99956.66;8259986;28;19960;-77
2022/09/22 03:01:55;;;;;;;;;;;;;;;4.49;86.68;99953.88;8264449;28;20507;-78
2022/09/22 03:05:58;;;;;;;;;;;;;;;4.46;86.82;99953.78;8256433;28;19926;-78
2022/09/22 03:10:00;;;;;;;;;;;;;;;4.43;86.66;99945.97;8263638;28;19925;-78
2022/09/22 03:14:02;;;;;;;;;;;;;;;4.38;86.63;99947.56;8258339;28;19937;-77
2022/09/22 03:18:04;;;;;;;;;;;;;;;4.29;86.56;99943.00;8258359;28;20321;-77
2022/09/22 03:22:08;;;;;;;;;;;;;;;4.31;87.14;99938.81;8253439;28;19972;-78
2022/09/22 03:26:12;;;;;;;;;;;;;;;4.28;87.04;99930.09;8253067;28;19941;-78
2022/09/22 03:30:22;;;;;;;;;;;;;;;4.32;87.37;99937.09;8254609;28;19991;-78
2022/09/22 03:34:24;;;;;;;;;;;;;;;4.30;87.09;99931.88;8271590;28;19979;-78
2022/09/22 03:38:33;;;;;;;;;;;;;;;4.27;86.98;99936.06;8310835;28;20345;-78
2022/09/22 03:42:35;;;;;;;;;;;;;;;4.23;86.95;99933.41;8308857;28;20023;-77
2022/09/22 03:46:37;;;;;;;;;;;;;;;4.15;86.67;99921.19;8298071;28;20016;-78
2022/09/22 03:50:39;;;;;;;;;;;;;;;4.12;87.05;99929.66;8306551;28;19924;-78
2022/09/22 03:54:41;;;;;;;;;;;;;;;4.14;87.21;99924.59;8306139;28;19935;-78
2022/09/22 03:58:43;;;;;;;;;;;;;;;4.10;86.72;99927.88;8305532;28;20011;-78
2022/09/22 04:02:47;;;;;;;;;;;;;;;4.06;86.74;99920.91;8303932;28;19925;-77
2022/09/22 04:06:50;;;;;;;;;;;;;;;4.04;86.90;99918.28;8316494;28;20675;-77
2022/09/22 04:10:58;;;;;;;;;;;;;;;3.99;86.83;99922.41;8323296;28;19932;-77
2022/09/22 04:15:00;;;;;;;;;;;;;;;4.00;86.81;99919.03;8309989;28;20431;-76
2022/09/22 04:19:03;;;;;;;;;;;;;;;3.95;86.34;99915.44;8323661;28;19925;-77
2022/09/22 04:23:10;;;;;;;;;;;;;;;3.90;86.70;99924.69;8320730;28;19925;-77
2022/09/22 04:27:12;;;;;;;;;;;;;;;3.88;86.58;99919.50;8335316;28;19925;-76
2022/09/22 04:31:21;;;;;;;;;;;;;;;3.88;86.73;99914.38;8321447;28;19989;-78
2022/09/22 04:35:31;;;;;;;;;;;;;;;3.85;86.79;99919.41;8302065;28;20456;-77
2022/09/22 04:39:34;;;;;;;;;;;;;;;3.82;86.58;99918.47;8329729;28;20031;-77
2022/09/22 04:43:41;;;;;;;;;;;;;;;3.81;86.85;99911.59;8289547;28;19925;-76
2022/09/22 04:47:51;;;;;;;;;;;;;;;3.73;86.62;99911.31;8317923;28;19935;-76
2022/09/22 04:52:03;;;;;;;;;;;;;;;3.71;86.64;99914.69;8321897;28;19975;-78
2022/09/22 04:56:05;;;;;;;;;;;;;;;3.67;86.89;99921.41;8327332;28;19967;-78
2022/09/22 05:00:07;;;;;;;;;;;;;;;3.61;86.83;99914.41;8328493;28;20228;-75
2022/09/22 05:04:10;;;;;;;;;;;;;;;3.64;87.13;99917.06;8309627;28;19925;-75
2022/09/22 05:08:12;;;;;;;;;;;;;;;3.66;87.22;99922.25;8324595;28;20043;-77
2022/09/22 05:12:14;;;;;;;;;;;;;;;3.58;86.85;99919.41;8320505;28;19925;-76
2022/09/22 05:16:16;;;;;;;;;;;;;;;3.54;86.71;99919.28;8321477;28;19952;-75
2022/09/22 05:20:19;;;;;;;;;;;;;;;3.52;87.02;99918.34;8292320;28;19929;-75
2022/09/22 05:24:21;;;;;;;;;;;;;;;3.50;86.82;99923.44;8290986;28;19988;-75
2022/09/22 05:28:23;;;;;;;;;;;;;;;3.38;87.17;99923.03;8291044;28;19929;-75
2022/09/22 05:32:25;;;;;;;;;;;;;;;3.37;87.59;99929.00;8310406;28;19943;-75
2022/09/22 05:36:26;;;;;;;;;;;;;;;3.42;87.62;99932.59;8302384;28;19928;-75
2022/09/22 05:40:29;;;;;;;;;;;;;;;3.43;87.71;99936.91;8309910;28;19925;-74
2022/09/22 05:44:31;;;;;;;;;;;;;;;3.49;87.98;99931.97;8291331;28;19939;-74
2022/09/22 05:48:32;;;;;;;;;;;;;;;3.59;88.17;99938.25;8310803;28;20070;-74
2022/09/22 05:52:34;;;;;;;;;;;;;;;3.66;88.30;99935.09;8302838;28;19936;-73
2022/09/22 05:56:35;;;;;;;;;;;;;;;3.75;88.19;99927.66;8293315;28;20006;-75
2022/09/22 06:00:38;;;;;;;;;;;;;;;3.82;88.02;99931.31;8313491;28;19937;-73
2022/09/22 06:04:46;;;;;;;;;;;;;;;3.96;88.71;99927.47;8322242;28;19979;-73
2022/09/22 06:08:50;;;;;;;;;;;;;;;4.10;89.05;99935.56;8318109;28;19925;-74
2022/09/22 06:12:56;;;;;;;;;;;;;;;4.20;88.32;99937.59;8323720;28;19925;-74
2022/09/22 06:16:58;;;;;;;;;;;;;;;4.35;89.13;99932.91;8322309;28;20395;-74
2022/09/22 06:20:59;;;;;;;;;;;;;;;4.53;88.97;99936.00;8314600;28;20313;-75
2022/09/22 06:25:00;;;;;;;;;;;;;;;4.97;89.05;99935.47;8321770;28;19931;-77
2022/09/22 06:29:02;;;;;;;;;;;;;;;5.36;87.96;99933.94;8303221;28;19979;-74
2022/09/22 06:33:03;;;;;;;;;;;;;;;5.69;86.68;99928.72;8315815;28;19982;-76
2022/09/22 06:37:08;;;;;;;;;;;;;;;5.93;86.34;99925.03;8261249;28;19933;-75
2022/09/22 06:41:09;;;;;;;;;;;;;;;6.31;86.07;99928.47;8257817;28;20363;-76
2022/09/22 06:45:11;;;;;;;;;;;;;;;6.70;85.85;99924.94;8249665;28;20318;-74
2022/09/22 06:49:12;;;;;;;;;;;;;;;7.19;84.12;99929.31;8247677;28;19940;-74
2022/09/22 06:53:14;;;;;;;;;;;;;;;7.51;82.91;99919.50;8247228;28;19931;-74
2022/09/22 06:57:16;;;;;;;;;;;;;;;8.02;81.95;99932.38;8245075;28;19930;-75
2022/09/22 07:01:18;;;;;;;;;;;;;;;8.35;80.28;99924.25;8248514;28;20028;-75
2022/09/22 07:05:26;;;;;;;;;;;;;;;8.89;79.73;99932.66;8274408;28;19961;-74
2022/09/22 07:09:33;;;;;;;;;;;;;;;9.30;77.49;99931.34;8267503;28;19983;-74
2022/09/22 07:13:38;;;;;;;;;;;;;;;9.65;76.85;99929.06;8257788;28;19933;-74
2022/09/22 07:17:40;;;;;;;;;;;;;;;10.02;75.01;99921.53;8271683;28;19973;-74
2022/09/22 07:21:43;;;;;;;;;;;;;;;10.44;73.51;99917.50;8248440;28;19970;-75
2022/09/22 07:25:58;;;;;;;;;;;;;;;11.00;72.16;99916.81;8244523;28;19925;-75
2022/09/22 07:30:07;;;;;;;;;;;;;;;11.49;70.45;99908.22;8240125;28;20428;-75
2022/09/22 07:34:17;;;;;;;;;;;;;;;11.90;69.26;99919.50;8254150;28;19951;-75
2022/09/22 07:38:19;;;;;;;;;;;;;;;12.26;67.78;99918.56;8310671;28;19921;-74
2022/09/22 07:42:28;;;;;;;;;;;;;;;12.66;66.23;99916.66;8306178;28;19932;-75
2022/09/22 07:46:29;;;;;;;;;;;;;;;12.99;64.05;99913.03;8310940;28;19957;-75
2022/09/22 07:50:30;;;;;;;;;;;;;;;13.36;62.75;99918.91;8311081;28;19924;-75
2022/09/22 07:54:35;;;;;;;;;;;;;;;13.55;61.23;99923.09;8306769;28;20340;-75
2022/09/22 07:58:38;;;;;;;;;;;;;;;13.80;60.51;99912.44;8293921;28;19928;-72
2022/09/22 08:02:40;;;;;;;;;;;;;;;14.05;59.14;99918.31;8309422;28;19932;-75
2022/09/22 08:06:45;;;;;;;;;;;;;;;14.33;58.65;99918.88;8280197;28;19924;-74
2022/09/22 08:10:47;;;;;;;;;;;;;;;14.53;57.52;99906.47;8304326;28;19925;-74
2022/09/22 08:14:56;;;;;;;;;;;;;;;14.79;56.86;99909.63;8312779;28;20265;-74
2022/09/22 08:18:59;;;;;;;;;;;;;;;15.13;55.88;99903.94;8310248;28;19995;-75
2022/09/22 08:23:07;;;;;;;;;;;;;;;15.41;54.74;99904.34;8312175;28;19921;-75
2022/09/22 08:27:08;;;;;;;;;;;;;;;15.70;54.24;99910.03;8302717;28;19925;-74
2022/09/22 08:31:10;;;;;;;;;;;;;;;15.98;52.98;99896.47;8311735;28;19932;-74
2022/09/22 08:35:12;;;;;;;;;;;;;;;16.16;52.49;99888.25;8288498;28;19979;-74
2022/09/22 08:39:14;;;;;;;;;;;;;;;16.32;51.74;99881.78;8298652;28;19925;-75
2022/09/22 08:43:21;;;;;;;;;;;;;;;16.45;50.86;99892.03;8300428;28;19933;-75
2022/09/22 08:51:54;;;;;;;;;;;;;;;16.78;50.60;99893.13;8309844;28;19925;-76
2022/09/22 08:56:04;;;;;;;;;;;;;;;16.91;49.53;99892.84;8284391;28;19933;-76
2022/09/22 09:00:11;;;;;;;;;;;;;;;16.99;49.18;99891.78;8304674;28;19931;-76
2022/09/22 09:04:34;;;;;;;;;;;;;;;17.16;48.83;99887.03;8304591;28;19982;-76
2022/09/22 09:08:42;;;;;;;;;;;;;;;17.35;48.88;99882.22;8312400;28;20489;-76
2022/09/22 09:12:52;;;;;;;;;;;;;;;17.59;48.12;99872.84;8318004;28;19924;-76
2022/09/22 09:17:00;;;;;;;;;;;;;;;17.72;46.82;99880.41;8312194;28;19940;-76
2022/09/22 09:21:13;;;;;;;;;;;;;;;17.75;46.13;99880.34;8311488;28;19929;-76
2022/09/22 09:25:21;;;;;;;;;;;;;;;17.91;46.23;99883.44;8313894;28;19929;-76
2022/09/22 09:29:29;;;;;;;;;;;;;;;18.03;45.43;99882.25;8292828;28;19928;-76
2022/09/22 09:33:51;;;;;;;;;;;;;;;18.14;45.37;99876.72;8312314;28;19925;-76
2022/09/22 09:38:00;;;;;;;;;;;;;;;18.28;44.58;99877.19;8298741;28;19924;-76
2022/09/22 09:42:05;;;;;;;;;;;;;;;18.40;43.98;99879.47;8307431;28;19925;-76
2022/09/22 09:46:13;;;;;;;;;;;;;;;18.52;43.27;99875.63;8303771;28;20431;-76
2022/09/22 09:50:15;;;;;;;;;;;;;;;18.63;43.27;99866.53;8319907;28;20361;-76
2022/09/22 09:54:17;;;;;;;;;;;;;;;18.71;42.79;99859.28;8312114;28;19929;-76
2022/09/22 10:02:49;;;;;;;;;;;;;;;18.89;41.35;99849.13;8310694;28;19983;-76
2022/09/22 10:06:50;;;;;;;;;;;;;;;18.92;39.97;99849.88;8291956;28;19955;-76
2022/09/22 10:11:00;;;;;;;;;;;;;;;18.90;40.29;99862.22;8318935;28;19925;-76
2022/09/22 10:15:02;;;;;;;;;;;;;;;18.88;40.28;99855.28;8324275;28;19924;-76
2022/09/22 10:19:16;;;;;;;;;;;;;;;19.06;40.59;99857.34;8298800;28;19940;-77
2022/09/22 10:23:20;;;;;;;;;;;;;;;19.01;40.74;99839.03;8318821;28;19925;-77
2022/09/22 10:27:24;;;;;;;;;;;;;;;19.10;40.07;99843.16;8297813;28;20452;-77
2022/09/22 10:31:27;;;;;;;;;;;;;;;19.19;39.69;99837.59;8315752;28;19933;-77
2022/09/22 10:35:35;;;;;;;;;;;;;;;19.34;39.78;99836.25;8313191;28;19982;-77
2022/09/22 10:39:39;;;;;;;;;;;;;;;19.44;39.45;99837.66;8311598;28;20380;-77
2022/09/22 10:44:00;;;;;;;;;;;;;;;19.40;39.55;99833.41;8305318;28;20590;-76
2022/09/22 10:48:31;;;;;;;;;;;;;;;19.49;39.28;99830.47;8314272;28;19979;-77
2022/09/22 10:52:40;;;;;;;;;;;;;;;19.49;38.26;99825.19;8299590;28;19959;-77
2022/09/22 10:56:42;;;;;;;;;;;;;;;19.50;38.86;99823.41;8276110;28;20360;-77
2022/09/22 11:00:46;;;;;;;;;;;;;;;19.52;38.75;99811.91;8286604;28;19925;-75
2022/09/22 11:05:04;;;;;;;;;;;;;;;19.68;39.12;99806.16;8312333;28;19929;-77
2022/09/22 11:13:33;;;;;;;;;;;;;;;19.75;37.99;99799.75;8322143;28;19925;-76
2022/09/22 11:17:54;;;;;;;;;;;;;;;19.86;38.34;99808.13;8293583;28;19935;-76
2022/09/22 11:22:14;;;;;;;;;;;;;;;20.00;37.82;99808.50;8315967;28;19929;-76
2022/09/22 11:26:34;;;;;;;;;;;;;;;20.05;37.88;99800.44;8313086;28;19935;-76
2022/09/22 11:30:42;;;;;;;;;;;;;;;20.10;37.39;99790.56;8316516;28;20250;-76
2022/09/22 11:34:55;;;;;;;;;;;;;;;20.14;37.33;99795.69;8315352;28;20422;-76
2022/09/22 11:38:58;;;;;;;;;;;;;;;20.23;36.56;99797.97;8320106;28;19936;-76
2022/09/22 11:43:18;;;;;;;;;;;;;;;20.28;35.89;99789.88;8323013;28;19960;-76
2022/09/22 11:47:26;;;;;;;;;;;;;;;20.42;36.07;99790.25;8310548;28;19925;-77
2022/09/22 11:51:40;;;;;;;;;;;;;;;20.47;35.54;99767.22;8294844;28;19975;-77
2022/09/22 11:55:55;;;;;;;;;;;;;;;20.59;36.07;99776.41;8280453;28;19936;-76
2022/09/22 12:00:01;;;;;;;;;;;;;;;20.70;36.16;99773.38;8313185;28;20316;-76
2022/09/22 12:04:26;;;;;;;;;;;;;;;20.71;35.80;99769.81;8298938;28;20778;-77
2022/09/22 12:08:29;;;;;;;;;;;;;;;20.65;35.03;99768.28;8305624;28;20058;-77
2022/09/22 12:12:31;;;;;;;;;;;;;;;20.70;35.70;99761.03;8308968;28;19925;-77
2022/09/22 12:16:41;;;;;;;;;;;;;;;20.69;35.26;99753.19;8291391;28;20408;-77
2022/09/22 12:20:48;;;;;;;;;;;;;;;20.75;35.16;99742.38;8287831;28;20337;-77
2022/09/22 12:24:50;;;;;;;;;;;;;;;20.79;35.08;99736.03;8316131;28;19925;-76
2022/09/22 12:28:52;;;;;;;;;;;;;;;20.86;35.31;99734.03;8304136;28;19925;-76
2022/09/22 12:32:53;;;;;;;;;;;;;;;20.80;34.94;99721.91;8304863;28;19925;-76
2022/09/22 12:36:58;;;;;;;;;;;;;;;20.80;35.05;99717.50;8305217;28;19925;-76
2022/09/22 12:41:02;;;;;;;;;;;;;;;20.83;35.07;99720.97;8312721;28;19930;-77
2022/09/22 12:45:14;;;;;;;;;;;;;;;20.85;34.92;99716.47;8291881;28;19995;-77
2022/09/22 12:49:18;;;;;;;;;;;;;;;20.80;34.86;99708.72;8303117;28;19925;-77
2022/09/22 12:53:20;;;;;;;;;;;;;;;20.77;34.60;99707.06;8304998;28;20559;-77
2022/09/22 12:57:28;;;;;;;;;;;;;;;20.79;34.14;99699.94;8327266;28;20011;-77
2022/09/22 13:01:31;;;;;;;;;;;;;;;20.76;34.30;99700.06;8306036;28;19987;-77
2022/09/22 13:05:34;;;;;;;;;;;;;;;20.78;34.95;99697.38;8310405;28;19947;-77
2022/09/22 13:09:47;;;;;;;;;;;;;;;20.78;34.32;99697.38;8312969;28;19925;-77
2022/09/22 13:13:49;;;;;;;;;;;;;;;20.73;34.00;99688.78;8324882;28;19925;-76
2022/09/22 13:17:50;;;;;;;;;;;;;;;20.76;34.09;99681.59;8318918;28;19980;-77
2022/09/22 13:21:52;;;;;;;;;;;;;;;20.83;34.45;99690.13;8320262;28;19925;-77
2022/09/22 13:25:53;;;;;;;;;;;;;;;20.78;34.14;99679.75;8325506;28;19925;-76
2022/09/22 13:29:57;;;;;;;;;;;;;;;20.87;34.26;99682.94;8318839;28;19982;-77
2022/09/22 13:34:15;;;;;;;;;;;;;;;20.93;33.90;99674.75;8319164;28;19925;-77
2022/09/22 13:38:16;;;;;;;;;;;;;;;20.89;33.33;99667.91;8319936;28;19925;-76
2022/09/22 13:42:30;;;;;;;;;;;;;;;20.90;34.03;99665.19;8323629;28;19929;-76
2022/09/22 13:46:37;;;;;;;;;;;;;;;20.90;33.72;99653.78;8316756;28;19925;-77
2022/09/22 13:51:04;;;;;;;;;;;;;;;20.81;32.89;99647.09;8323125;28;19936;-76
2022/09/22 13:55:08;;;;;;;;;;;;;;;20.83;33.38;99641.78;8291320;28;19929;-76
2022/09/22 13:59:16;;;;;;;;;;;;;;;20.92;34.00;99644.00;8312957;28;19986;-77
2022/09/22 14:03:25;;;;;;;;;;;;;;;20.98;33.73;99644.59;8296149;28;19925;-77
2022/09/22 14:07:29;;;;;;;;;;;;;;;21.07;34.82;99643.34;8294519;28;20023;-77
2022/09/22 14:11:50;;;;;;;;;;;;;;;21.09;33.74;99636.22;8316200;28;20321;-77
2022/09/22 14:15:52;;;;;;;;;;;;;;;21.07;33.79;99631.00;8313901;28;19925;-76
2022/09/22 14:19:59;;;;;;;;;;;;;;;21.13;33.65;99633.38;8312741;28;19967;-77
2022/09/22 14:24:00;;;;;;;;;;;;;;;21.08;33.00;99627.44;8301902;28;19935;-76
2022/09/22 14:28:01;;;;;;;;;;;;;;;21.08;33.48;99631.88;8307826;28;19932;-76
2022/09/22 14:32:09;;;;;;;;;;;;;;;21.05;33.56;99629.34;8310880;28;19925;-77
2022/09/22 14:36:16;;;;;;;;;;;;;;;21.05;33.58;99629.34;8309845;28;20440;-77
2022/09/22 14:40:22;;;;;;;;;;;;;;;21.01;32.63;99622.50;8318437;28;20362;-76
2022/09/22 14:44:42;;;;;;;;;;;;;;;20.90;33.72;99619.47;8306583;28;19928;-77
2022/09/22 14:48:44;;;;;;;;;;;;;;;20.89;33.74;99609.81;8292081;28;19982;-77
2022/09/22 14:52:54;;;;;;;;;;;;;;;20.96;34.26;99611.25;8275556;28;19928;-77
2022/09/22 14:56:57;;;;;;;;;;;;;;;21.00;33.32;99605.78;8313019;28;19925;-77
2022/09/22 15:05:24;;;;;;;;;;;;;;;21.01;33.25;99604.88;8299577;28;19925;-76
2022/09/22 15:09:36;;;;;;;;;;;;;;;21.01;33.36;99606.66;8305861;28;19931;-76
2022/09/22 15:13:39;;;;;;;;;;;;;;;21.08;33.63;99600.16;8295090;28;19929;-76
2022/09/22 15:22:20;;;;;;;;;;;;;;;21.20;33.24;99586.44;8313967;28;19929;-77
2022/09/22 15:26:23;;;;;;;;;;;;;;;21.27;33.45;99587.03;8284369;28;20368;-76
2022/09/22 15:30:30;;;;;;;;;;;;;;;21.32;33.99;99588.53;8314435;28;19986;-77
2022/09/22 15:34:32;;;;;;;;;;;;;;;21.43;33.34;99582.78;8319145;28;19925;-77
2022/09/22 15:38:36;;;;;;;;;;;;;;;21.48;33.40;99572.84;8316048;28;19925;-77
2022/09/22 15:42:38;;;;;;;;;;;;;;;21.54;33.20;99577.84;8295903;28;19979;-76
2022/09/22 15:46:59;;;;;;;;;;;;;;;21.70;33.03;99583.28;8321234;28;19928;-77
2022/09/22 15:51:05;;;;;;;;;;;;;;;21.87;32.75;99579.84;8315506;28;19933;-77
2022/09/22 15:55:10;;;;;;;;;;;;;;;22.03;32.51;99586.09;8301929;28;19971;-77
2022/09/22 15:59:15;;;;;;;;;;;;;;;22.56;31.88;99582.66;8301385;28;19925;-76
2022/09/22 16:03:23;;;;;;;;;;;;;;;22.64;31.96;99575.19;8310778;28;19925;-77
2022/09/22 16:07:24;;;;;;;;;;;;;;;22.75;31.59;99572.84;8294427;28;19932;-77
2022/09/22 16:11:29;;;;;;;;;;;;;;;22.86;31.31;99575.81;8315487;28;19925;-76
2022/09/22 16:15:31;;;;;;;;;;;;;;;23.04;32.10;99573.16;8293023;28;19936;-76
2022/09/22 16:19:33;;;;;;;;;;;;;;;23.21;31.64;99576.63;8294530;28;19928;-76
2022/09/22 16:23:34;;;;;;;;;;;;;;;24.98;28.62;99568.38;8289801;28;19967;-76
2022/09/22 16:27:37;;;;;;;;;;;;;;;25.25;27.89;99571.16;8310365;28;19929;-77
2022/09/22 16:31:38;;;;;;;;;;;;;;;23.14;30.88;99567.28;8289659;28;19983;-77
2022/09/22 16:35:40;;;;;;;;;;;;;;;21.75;33.41;99567.22;8307025;28;19971;-77
2022/09/22 16:39:48;;;;;;;;;;;;;;;20.78;35.94;99568.03;8294143;28;19925;-76
2022/09/22 16:43:57;;;;;;;;;;;;;;;19.97;37.89;99560.84;8307443;28;20358;-76
2022/09/22 16:48:05;;;;;;;;;;;;;;;19.31;38.27;99565.97;8303066;28;20584;-76
2022/09/22 16:52:09;;;;;;;;;;;;;;;18.81;39.64;99578.34;8302147;28;19933;-76
2022/09/22 16:56:27;;;;;;;;;;;;;;;18.36;40.27;99578.09;8267699;28;19929;-76
2022/09/22 17:00:31;;;;;;;;;;;;;;;17.93;41.57;99570.72;8301207;28;19925;-76
2022/09/22 17:04:39;;;;;;;;;;;;;;;17.56;42.32;99563.94;8296447;28;19929;-76
2022/09/22 17:08:42;;;;;;;;;;;;;;;17.25;43.70;99565.78;8301486;28;19925;-76
2022/09/22 17:12:44;;;;;;;;;;;;;;;16.75;48.06;99571.50;8290759;28;19925;-77
2022/09/22 17:16:48;;;;;;;;;;;;;;;16.33;50.32;99576.91;8300436;28;19929;-77
2022/09/22 17:20:49;;;;;;;;;;;;;;;16.00;50.89;99578.59;8302962;28;20325;-76
2022/09/22 17:24:53;;;;;;;;;;;;;;;15.60;52.42;99576.00;8281981;28;19929;-76
2022/09/22 17:28:55;;;;;;;;;;;;;;;15.29;54.02;99582.75;8279098;28;19935;-76
2022/09/22 17:32:56;;;;;;;;;;;;;;;14.94;55.19;99588.69;8289554;28;20413;-76
2022/09/22 17:36:58;;;;;;;;;;;;;;;14.66;56.50;99585.69;8288775;28;19929;-76
2022/09/22 17:41:09;;;;;;;;;;;;;;;14.45;57.39;99589.56;8303949;28;19987;-75
2022/09/22 17:45:10;;;;;;;;;;;;;;;14.17;57.87;99589.09;8289840;28;19929;-76
2022/09/22 17:57:56;;;;;;;;;;;;;;;13.60;59.28;99587.31;8302215;28;19929;-76
2022/09/22 18:01:57;;;;;;;;;;;;;;;13.37;60.22;99593.72;8305309;28;19928;-76
2022/09/22 18:05:59;;;;;;;;;;;;;;;13.16;60.37;99589.59;8309812;28;19932;-76
2022/09/22 18:10:01;;;;;;;;;;;;;;;13.01;62.01;99591.50;8289442;28;19983;-75
2022/09/22 18:14:09;;;;;;;;;;;;;;;12.90;62.12;99593.34;8313735;28;19933;-76
2022/09/22 18:18:11;;;;;;;;;;;;;;;12.78;62.24;99597.84;8322372;28;19921;-76
2022/09/22 18:22:22;;;;;;;;;;;;;;;12.64;61.58;99598.84;8306280;28;19978;-77
2022/09/22 18:26:34;;;;;;;;;;;;;;;12.52;61.62;99598.94;8318361;28;20003;-77
2022/09/22 18:30:38;;;;;;;;;;;;;;;12.35;62.06;99598.22;8309318;28;19937;-77
2022/09/22 18:34:40;;;;;;;;;;;;;;;12.22;63.07;99607.88;8306667;28;19929;-77
2022/09/22 18:38:42;;;;;;;;;;;;;;;12.05;64.39;99608.00;8307735;28;19928;-77
2022/09/22 18:42:44;;;;;;;;;;;;;;;11.92;65.45;99606.34;8298084;28;19929;-75
2022/09/22 18:46:47;;;;;;;;;;;;;;;11.76;65.55;99617.69;8290362;28;20025;-76
2022/09/22 18:50:55;;;;;;;;;;;;;;;11.60;66.56;99618.63;8285599;28;20547;-76
2022/09/22 18:54:57;;;;;;;;;;;;;;;11.49;66.69;99619.56;8306614;28;20724;-75
2022/09/22 18:58:59;;;;;;;;;;;;;;;11.34;67.34;99617.03;8307926;28;20668;-75
2022/09/22 19:03:00;;;;;;;;;;;;;;;11.19;68.01;99624.88;8308432;28;19932;-75
2022/09/22 19:11:28;;;;;;;;;;;;;;;10.96;68.22;99634.47;8314966;28;20011;-75
2022/09/22 19:15:39;;;;;;;;;;;;;;;10.84;68.67;99630.16;8302352;28;20259;-75
2022/09/22 19:19:43;;;;;;;;;;;;;;;10.73;69.31;99631.91;8307126;28;20254;-74
2022/09/22 19:23:46;;;;;;;;;;;;;;;10.59;69.76;99630.19;8311797;28;20346;-75
2022/09/22 19:27:48;;;;;;;;;;;;;;;10.52;70.13;99632.78;8309067;28;19929;-75
2022/09/22 19:31:50;;;;;;;;;;;;;;;10.45;71.52;99637.13;8297503;28;20067;-75
2022/09/22 19:35:51;;;;;;;;;;;;;;;10.36;71.96;99636.25;8299577;28;19991;-75
2022/09/22 19:39:52;;;;;;;;;;;;;;;10.28;72.86;99631.06;8300174;28;19990;-75
2022/09/22 19:44:01;;;;;;;;;;;;;;;10.21;73.34;99631.91;8306597;28;20429;-75
2022/09/22 19:48:02;;;;;;;;;;;;;;;10.15;73.17;99624.09;8308217;28;19951;-75
2022/09/22 19:52:03;;;;;;;;;;;;;;;10.05;73.84;99627.53;8289669;28;19933;-74
2022/09/22 19:56:05;;;;;;;;;;;;;;;9.97;73.94;99612.81;8307497;28;20700;-75
2022/09/22 20:00:16;;;;;;;;;;;;;;;9.87;74.59;99612.78;8309517;28;20634;-75
2022/09/22 20:04:18;;;;;;;;;;;;;;;9.75;74.84;99605.00;8297292;28;19925;-75
2022/09/22 20:08:21;;;;;;;;;;;;;;;9.60;75.32;99604.09;8307295;28;19933;-75
2022/09/22 20:12:29;;;;;;;;;;;;;;;9.52;76.21;99604.94;8302486;28;19935;-75
2022/09/22 20:16:31;;;;;;;;;;;;;;;9.48;76.20;99598.88;8309259;28;19928;-75
2022/09/22 20:20:33;;;;;;;;;;;;;;;9.47;76.03;99594.53;8312110;28;20298;-76
2022/09/22 20:24:34;;;;;;;;;;;;;;;9.42;76.34;99591.09;8292919;28;20431;-76
2022/09/22 20:28:38;;;;;;;;;;;;;;;9.36;77.00;99591.06;8305150;28;20273;-76
2022/09/22 20:32:39;;;;;;;;;;;;;;;9.22;77.15;99584.97;8306613;28;19925;-76
2022/09/22 20:36:47;;;;;;;;;;;;;;;9.14;77.04;99577.13;8302975;28;19939;-76
2022/09/22 20:40:58;;;;;;;;;;;;;;;9.06;77.69;99577.13;8300951;28;19925;-76
2022/09/22 20:45:00;;;;;;;;;;;;;;;9.00;78.06;99582.28;8288532;28;19933;-76
2022/09/22 20:49:03;;;;;;;;;;;;;;;8.93;78.17;99577.91;8299865;28;19954;-76
2022/09/22 20:53:11;;;;;;;;;;;;;;;8.90;78.39;99580.50;8291986;28;19984;-75
2022/09/22 20:57:13;;;;;;;;;;;;;;;8.76;78.62;99579.53;8272949;28;19925;-75
2022/09/22 21:01:15;;;;;;;;;;;;;;;8.68;79.34;99573.47;8308929;28;20017;-77
2022/09/22 21:05:17;;;;;;;;;;;;;;;8.65;79.53;99574.31;8310763;28;19925;-75
2022/09/22 21:13:45;;;;;;;;;;;;;;;8.52;80.05;99561.28;8310982;28;19986;-77
2022/09/22 21:17:47;;;;;;;;;;;;;;;8.42;80.45;99563.78;8293012;28;19970;-77
2022/09/22 21:21:48;;;;;;;;;;;;;;;8.38;80.64;99561.19;8287925;28;19929;-77
2022/09/22 21:25:57;;;;;;;;;;;;;;;8.36;80.63;99560.31;8306544;28;19955;-77
2022/09/22 21:29:58;;;;;;;;;;;;;;;8.34;81.15;99556.84;8293151;28;19948;-77
2022/09/22 21:33:59;;;;;;;;;;;;;;;8.27;81.20;99561.09;8312693;28;20334;-77
2022/09/22 21:38:01;;;;;;;;;;;;;;;8.22;81.22;99564.47;8294723;28;20000;-77
2022/09/22 21:42:02;;;;;;;;;;;;;;;8.18;81.48;99558.41;8304687;28;20568;-76
2022/09/22 21:46:05;;;;;;;;;;;;;;;8.10;81.05;99560.94;8305019;28;19929;-76
2022/09/22 21:50:07;;;;;;;;;;;;;;;8.05;81.46;99560.03;8310963;28;19933;-75
2022/09/22 21:54:13;;;;;;;;;;;;;;;7.96;81.46;99554.78;8295540;28;19929;-75
2022/09/22 21:58:14;;;;;;;;;;;;;;;7.89;81.78;99555.56;8320492;28;19929;-77
2022/09/22 22:02:22;;;;;;;;;;;;;;;7.80;81.80;99551.19;8306506;28;19925;-77